createdAt,value
2018-12-29T00:00:53.105Z,1.99
2018-12-29T00:03:28.625Z,2.09
2018-12-29T00:06:01.491Z,2.09
2018-12-29T00:08:39.815Z,2.02
2018-12-29T00:11:21.115Z,1.99
2018-12-29T00:13:59.795Z,2.11
2018-12-29T00:16:40.086Z,1.98
2018-12-29T00:19:21.128Z,2.03
2018-12-29T00:21:54.844Z,2.04
2018-12-29T00:24:26.238Z,2.05
2018-12-29T00:26:58.419Z,2.09
2018-12-29T00:29:29.648Z,2.01
2018-12-29T00:32:05.547Z,1.98
2018-12-29T00:34:37.372Z,2.01
2018-12-29T00:37:08.610Z,2.01
2018-12-29T00:39:40.140Z,1.97
2018-12-29T00:42:11.293Z,2.02
2018-12-29T00:44:42.837Z,1.90
2018-12-29T00:47:16.265Z,1.93
2018-12-29T00:49:51.230Z,1.94
2018-12-29T00:52:32.709Z,1.94
2018-12-29T00:55:07.187Z,1.92
2018-12-29T00:57:43.920Z,1.87
2018-12-29T01:00:21.543Z,1.84
2018-12-29T01:02:53.130Z,1.90
2018-12-29T01:05:35.338Z,1.99
2018-12-29T01:08:13.657Z,1.96
2018-12-29T01:10:47.608Z,1.99
2018-12-29T01:13:19.769Z,1.98
2018-12-29T01:15:50.881Z,1.95
2018-12-29T01:18:32.183Z,1.91
2018-12-29T01:21:03.450Z,1.90
2018-12-29T01:23:34.954Z,1.89
2018-12-29T01:26:06.058Z,1.86
2018-12-29T01:28:38.001Z,1.91
2018-12-29T01:31:09.439Z,1.86
2018-12-29T01:33:41.234Z,1.80
2018-12-29T01:36:12.664Z,1.75
2018-12-29T01:38:43.784Z,1.80
2018-12-29T01:41:15.191Z,1.86
2018-12-29T01:43:46.337Z,1.88
2018-12-29T01:46:17.323Z,1.90
2018-12-29T01:48:48.735Z,1.90
2018-12-29T01:51:20.410Z,1.94
2018-12-29T01:53:51.560Z,1.95
2018-12-29T01:56:23.019Z,1.94
2018-12-29T01:58:55.127Z,1.89
2018-12-29T02:01:27.234Z,1.95
2018-12-29T02:03:58.778Z,1.90
2018-12-29T02:06:30.283Z,1.95
2018-12-29T02:09:10.352Z,1.99
2018-12-29T02:11:41.949Z,2.02
2018-12-29T02:14:13.688Z,1.91
2018-12-29T02:16:45.505Z,1.90
2018-12-29T02:19:16.991Z,1.96
2018-12-29T02:21:48.550Z,1.94
2018-12-29T02:24:20.039Z,1.84
2018-12-29T02:26:51.829Z,1.85
2018-12-29T02:29:23.603Z,1.90
2018-12-29T02:31:54.700Z,1.85
2018-12-29T02:34:26.355Z,1.87
2018-12-29T02:36:57.496Z,1.86
2018-12-29T02:39:28.579Z,1.78
2018-12-29T02:42:00.403Z,1.79
2018-12-29T02:44:32.008Z,1.77
2018-12-29T02:47:04.035Z,1.79
2018-12-29T02:49:35.198Z,1.78
2018-12-29T02:52:07.015Z,1.76
2018-12-29T02:54:38.864Z,1.79
2018-12-29T02:57:14.071Z,1.81
2018-12-29T02:59:48.239Z,1.84
2018-12-29T03:02:19.409Z,1.70
2018-12-29T03:04:51.176Z,1.77
2018-12-29T03:07:22.874Z,1.77
2018-12-29T03:09:54.291Z,1.71
2018-12-29T03:12:25.383Z,1.73
2018-12-29T03:14:57.303Z,1.71
2018-12-29T03:17:28.969Z,1.73
2018-12-29T03:20:00.191Z,1.72
2018-12-29T03:22:31.971Z,1.65
2018-12-29T03:25:03.438Z,1.74
2018-12-29T03:27:35.097Z,1.71
2018-12-29T03:30:06.025Z,1.69
2018-12-29T03:32:37.743Z,1.75
2018-12-29T03:35:11.575Z,1.81
2018-12-29T03:37:44.610Z,1.81
2018-12-29T03:40:17.781Z,1.78
2018-12-29T03:42:49.444Z,1.80
2018-12-29T03:45:22.401Z,1.82
2018-12-29T03:47:53.825Z,1.89
2018-12-29T03:50:26.121Z,1.90
2018-12-29T03:52:56.987Z,1.88
2018-12-29T03:55:29.990Z,1.84
2018-12-29T03:58:01.090Z,1.84
2018-12-29T04:00:35.769Z,1.84
2018-12-29T04:03:07.437Z,1.79
2018-12-29T04:05:40.957Z,1.80
2018-12-29T04:08:12.439Z,1.72
2018-12-29T04:10:44.083Z,1.74
2018-12-29T04:13:15.767Z,1.81
2018-12-29T04:15:47.670Z,1.86
2018-12-29T04:18:22.995Z,1.90
2018-12-29T04:20:54.809Z,1.94
2018-12-29T04:23:26.451Z,1.90
2018-12-29T04:25:58.343Z,1.81
2018-12-29T04:28:30.027Z,1.82
2018-12-29T04:31:02.022Z,1.83
2018-12-29T04:33:33.485Z,1.89
2018-12-29T04:36:06.078Z,1.88
2018-12-29T04:38:37.490Z,1.87
2018-12-29T04:41:08.871Z,1.92
2018-12-29T04:43:41.019Z,1.91
2018-12-29T04:46:11.876Z,1.95
2018-12-29T04:48:45.550Z,1.91
2018-12-29T04:51:17.028Z,1.90
2018-12-29T04:53:53.320Z,1.95
2018-12-29T04:56:28.098Z,2.00
2018-12-29T04:59:00.633Z,2.01
2018-12-29T05:01:34.532Z,2.04
2018-12-29T05:04:07.201Z,1.99
2018-12-29T05:06:41.559Z,2.00
2018-12-29T05:09:14.992Z,1.97
2018-12-29T05:11:46.361Z,1.88
2018-12-29T05:14:22.813Z,1.93
2018-12-29T05:17:03.676Z,1.97
2018-12-29T05:19:35.446Z,1.97
2018-12-29T05:22:08.024Z,1.93
2018-12-29T05:24:39.118Z,2.01
2018-12-29T05:27:10.562Z,2.00
2018-12-29T05:29:42.624Z,2.07
2018-12-29T05:32:14.010Z,2.07
2018-12-29T05:34:47.237Z,2.07
2018-12-29T05:37:23.071Z,2.13
2018-12-29T05:39:54.466Z,2.14
2018-12-29T05:42:27.344Z,1.97
2018-12-29T05:44:58.473Z,1.99
2018-12-29T05:47:30.367Z,1.97
2018-12-29T05:50:08.319Z,1.98
2018-12-29T05:52:41.778Z,2.02
2018-12-29T05:55:13.420Z,1.96
2018-12-29T05:57:45.117Z,1.95
2018-12-29T06:00:18.367Z,1.99
2018-12-29T06:02:56.283Z,2.00
2018-12-29T06:05:30.198Z,1.99
2018-12-29T06:08:03.163Z,1.92
2018-12-29T06:10:41.147Z,1.95
2018-12-29T06:13:19.433Z,2.00
2018-12-29T06:16:01.450Z,2.00
2018-12-29T06:18:40.998Z,2.00
2018-12-29T06:21:13.754Z,2.11
2018-12-29T06:23:45.255Z,2.14
2018-12-29T06:26:16.641Z,2.12
2018-12-29T06:28:54.214Z,2.14
2018-12-29T06:31:38.409Z,2.15
2018-12-29T06:34:16.014Z,2.12
2018-12-29T06:37:02.771Z,2.07
2018-12-29T06:39:45.693Z,2.06
2018-12-29T06:42:17.387Z,1.98
2018-12-29T06:44:49.094Z,1.93
2018-12-29T06:47:20.712Z,2.01
2018-12-29T06:49:53.155Z,2.32
2018-12-29T06:52:24.342Z,2.17
2018-12-29T06:54:56.104Z,2.13
2018-12-29T06:57:27.631Z,2.08
2018-12-29T06:59:59.014Z,2.04
2018-12-29T07:02:30.655Z,2.06
2018-12-29T07:05:02.427Z,2.13
2018-12-29T07:07:34.102Z,2.01
2018-12-29T07:10:05.019Z,2.11
2018-12-29T07:12:36.457Z,2.13
2018-12-29T07:15:07.074Z,2.07
2018-12-29T07:17:38.701Z,2.09
2018-12-29T07:20:09.578Z,2.14
2018-12-29T07:22:41.240Z,2.00
2018-12-29T07:25:12.623Z,2.09
2018-12-29T07:27:43.797Z,2.09
2018-12-29T07:30:14.655Z,2.25
2018-12-29T07:32:45.770Z,2.18
2018-12-29T07:35:17.176Z,2.16
2018-12-29T07:37:48.063Z,2.12
2018-12-29T07:40:19.729Z,2.14
2018-12-29T07:42:51.383Z,2.13
2018-12-29T07:45:21.666Z,2.14
2018-12-29T07:47:53.056Z,2.20
2018-12-29T07:50:24.455Z,2.25
2018-12-29T07:52:55.819Z,2.16
2018-12-29T07:55:27.569Z,2.20
2018-12-29T07:57:58.477Z,2.22
2018-12-29T08:00:29.940Z,2.23
2018-12-29T08:03:01.339Z,2.29
2018-12-29T08:05:33.610Z,2.39
2018-12-29T08:08:06.090Z,2.30
2018-12-29T08:10:38.842Z,2.32
2018-12-29T08:13:09.549Z,2.30
2018-12-29T08:15:40.956Z,2.26
2018-12-29T08:18:12.637Z,2.03
2018-12-29T08:20:44.328Z,2.05
2018-12-29T08:23:16.018Z,2.09
2018-12-29T08:25:47.396Z,2.06
2018-12-29T08:28:20.367Z,2.04
2018-12-29T08:30:51.847Z,1.99
2018-12-29T08:33:23.569Z,2.00
2018-12-29T08:35:54.668Z,2.03
2018-12-29T08:38:26.125Z,1.95
2018-12-29T08:40:57.792Z,1.99
2018-12-29T08:43:28.938Z,1.96
2018-12-29T08:46:00.343Z,1.98
2018-12-29T08:48:31.769Z,1.95
2018-12-29T08:51:03.667Z,2.09
2018-12-29T08:53:34.562Z,2.13
2018-12-29T08:56:05.977Z,1.98
2018-12-29T08:58:45.429Z,1.92
2018-12-29T09:01:18.009Z,1.91
2018-12-29T09:03:49.701Z,1.86
2018-12-29T09:06:21.140Z,1.92
2018-12-29T09:08:52.947Z,2.04
2018-12-29T09:11:24.050Z,2.08
2018-12-29T09:13:55.451Z,2.16
2018-12-29T09:16:27.162Z,2.19
2018-12-29T09:18:58.565Z,2.18
2018-12-29T09:21:29.703Z,2.30
2018-12-29T09:24:00.935Z,2.17
2018-12-29T09:26:32.311Z,2.16
2018-12-29T09:29:03.967Z,2.20
2018-12-29T09:31:35.658Z,2.27
2018-12-29T09:34:07.306Z,2.42
2018-12-29T09:36:38.214Z,2.33
2018-12-29T09:39:10.180Z,2.20
2018-12-29T09:41:41.585Z,2.28
2018-12-29T09:44:13.250Z,2.40
2018-12-29T09:46:44.978Z,2.37
2018-12-29T09:49:16.681Z,2.27
2018-12-29T09:51:50.530Z,2.22
2018-12-29T09:54:21.638Z,2.31
2018-12-29T09:56:52.859Z,2.04
2018-12-29T09:59:23.997Z,1.85
2018-12-29T10:01:55.422Z,1.91
2018-12-29T10:04:27.155Z,2.02
2018-12-29T10:06:58.361Z,2.00
2018-12-29T10:09:29.825Z,2.09
2018-12-29T10:12:01.506Z,2.17
2018-12-29T10:14:33.163Z,1.97
2018-12-29T10:17:04.825Z,2.13
2018-12-29T10:19:35.680Z,2.05
2018-12-29T10:22:07.048Z,2.12
2018-12-29T10:24:40.922Z,2.18
2018-12-29T10:27:11.544Z,2.31
2018-12-29T10:29:43.187Z,2.40
2018-12-29T10:32:14.602Z,2.31
2018-12-29T10:34:46.025Z,2.26
2018-12-29T10:37:18.529Z,2.36
2018-12-29T10:39:49.936Z,2.41
2018-12-29T10:42:21.397Z,2.48
2018-12-29T10:44:53.389Z,2.51
2018-12-29T10:47:24.771Z,2.24
2018-12-29T10:49:56.205Z,2.40
2018-12-29T10:52:27.888Z,2.51
2018-12-29T10:54:59.858Z,2.68
2018-12-29T10:57:31.305Z,2.67
2018-12-29T11:00:02.678Z,2.62
2018-12-29T11:02:34.057Z,2.75
2018-12-29T11:05:05.723Z,2.43
2018-12-29T11:07:37.382Z,2.43
2018-12-29T11:10:08.653Z,2.69
2018-12-29T11:12:40.958Z,2.67
2018-12-29T11:15:11.831Z,2.56
2018-12-29T11:17:43.232Z,2.47
2018-12-29T11:20:14.987Z,2.63
2018-12-29T11:22:49.623Z,2.49
2018-12-29T11:25:20.813Z,2.70
2018-12-29T11:27:52.945Z,2.54
2018-12-29T11:30:24.989Z,2.54
2018-12-29T11:32:57.995Z,2.51
2018-12-29T11:35:30.806Z,2.67
2018-12-29T11:38:09.586Z,2.78
2018-12-29T11:40:46.883Z,2.69
2018-12-29T11:43:18.608Z,2.82
2018-12-29T11:45:50.256Z,3.12
2018-12-29T11:48:25.219Z,3.34
2018-12-29T11:50:56.395Z,3.30
2018-12-29T11:53:27.577Z,3.30
2018-12-29T11:55:58.734Z,2.96
2018-12-29T11:58:34.449Z,2.94
2018-12-29T12:01:09.462Z,2.86
2018-12-29T12:03:45.027Z,2.72
2018-12-29T12:06:16.567Z,2.90
2018-12-29T12:08:48.019Z,3.06
2018-12-29T12:11:19.734Z,3.03
2018-12-29T12:13:51.270Z,2.83
2018-12-29T12:16:22.649Z,3.29
2018-12-29T12:18:54.167Z,3.43
2018-12-29T12:21:25.577Z,2.89
2018-12-29T12:23:57.233Z,2.74
2018-12-29T12:26:28.709Z,3.11
2018-12-29T12:28:59.634Z,3.25
2018-12-29T12:31:32.054Z,3.44
2018-12-29T12:34:06.443Z,3.36
2018-12-29T12:36:41.566Z,3.32
2018-12-29T12:39:13.227Z,3.22
2018-12-29T12:41:47.405Z,3.61
2018-12-29T12:44:23.441Z,3.67
2018-12-29T12:46:54.525Z,3.83
2018-12-29T12:49:26.284Z,4.37
2018-12-29T12:51:57.974Z,4.80
2018-12-29T12:54:29.397Z,5.30
2018-12-29T12:57:00.852Z,5.87
2018-12-29T12:59:32.897Z,5.56
2018-12-29T13:02:04.657Z,5.11
2018-12-29T13:04:36.051Z,5.56
2018-12-29T13:07:09.567Z,5.43
2018-12-29T13:09:41.026Z,4.70
2018-12-29T13:12:12.109Z,4.29
2018-12-29T13:14:43.785Z,4.71
2018-12-29T13:17:14.640Z,4.55
2018-12-29T13:19:46.321Z,4.08
2018-12-29T13:22:17.673Z,4.14
2018-12-29T13:24:49.431Z,3.89
2018-12-29T13:27:20.869Z,3.67
2018-12-29T13:29:52.576Z,3.38
2018-12-29T13:32:24.530Z,3.25
2018-12-29T13:34:55.710Z,3.42
2018-12-29T13:37:27.351Z,3.93
2018-12-29T13:39:58.848Z,3.78
2018-12-29T13:42:30.555Z,3.69
2018-12-29T13:45:06.014Z,3.84
2018-12-29T13:47:37.119Z,3.61
2018-12-29T13:50:08.512Z,3.69
2018-12-29T13:52:39.996Z,3.71
2018-12-29T13:55:11.757Z,3.65
2018-12-29T13:57:43.230Z,3.70
2018-12-29T14:00:14.469Z,3.31
2018-12-29T14:02:45.848Z,2.90
2018-12-29T14:05:17.152Z,2.93
2018-12-29T14:07:49.154Z,3.04
2018-12-29T14:10:20.874Z,2.95
2018-12-29T14:12:52.630Z,2.91
2018-12-29T14:15:26.427Z,3.01
2018-12-29T14:17:57.944Z,2.88
2018-12-29T14:20:29.069Z,2.94
2018-12-29T14:23:00.775Z,2.77
2018-12-29T14:25:32.325Z,2.91
2018-12-29T14:28:04.042Z,2.95
2018-12-29T14:30:35.422Z,2.79
2018-12-29T14:33:07.004Z,2.94
2018-12-29T14:35:38.770Z,2.89
2018-12-29T14:38:12.575Z,2.76
2018-12-29T14:40:43.312Z,2.81
2018-12-29T14:43:14.788Z,2.87
2018-12-29T14:45:46.203Z,2.88
2018-12-29T14:48:17.881Z,2.92
2018-12-29T14:50:48.757Z,2.90
2018-12-29T14:53:20.438Z,2.83
2018-12-29T14:55:52.131Z,3.04
2018-12-29T14:58:23.534Z,3.05
2018-12-29T15:00:54.985Z,3.13
2018-12-29T15:03:26.541Z,3.27
2018-12-29T15:05:58.059Z,3.00
2018-12-29T15:08:29.829Z,2.94
2018-12-29T15:11:01.204Z,2.87
2018-12-29T15:13:33.272Z,2.87
2018-12-29T15:16:04.686Z,2.84
2018-12-29T15:18:43.452Z,2.85
2018-12-29T15:21:09.637Z,2.79
2018-12-29T15:23:41.372Z,2.91
2018-12-29T15:26:13.258Z,2.88
2018-12-29T15:28:44.910Z,2.85
2018-12-29T15:31:18.717Z,2.62
2018-12-29T15:33:50.462Z,2.83
2018-12-29T15:36:21.990Z,2.66
2018-12-29T15:38:53.046Z,2.71
2018-12-29T15:41:25.027Z,2.68
2018-12-29T15:43:56.720Z,2.68
2018-12-29T15:46:28.388Z,2.64
2018-12-29T15:49:00.890Z,2.65
2018-12-29T15:51:32.518Z,2.67
2018-12-29T15:54:03.834Z,2.80
2018-12-29T15:56:35.421Z,2.97
2018-12-29T15:59:06.687Z,3.07
2018-12-29T16:01:39.788Z,3.24
2018-12-29T16:04:11.300Z,3.08
2018-12-29T16:06:43.033Z,2.92
2018-12-29T16:09:14.645Z,2.90
2018-12-29T16:11:46.561Z,2.68
2018-12-29T16:14:18.268Z,2.75
2018-12-29T16:16:49.997Z,2.67
2018-12-29T16:19:25.676Z,3.02
2018-12-29T16:21:57.065Z,2.95
2018-12-29T16:24:28.528Z,2.58
2018-12-29T16:26:59.722Z,2.55
2018-12-29T16:29:31.118Z,2.81
2018-12-29T16:32:02.534Z,2.62
2018-12-29T16:34:34.404Z,2.51
2018-12-29T16:37:05.526Z,2.56
2018-12-29T16:39:37.209Z,2.53
2018-12-29T16:42:08.069Z,2.39
2018-12-29T16:44:39.557Z,2.39
2018-12-29T16:47:11.006Z,2.42
2018-12-29T16:49:42.653Z,2.70
2018-12-29T16:52:14.132Z,2.67
2018-12-29T16:54:45.672Z,2.64
2018-12-29T16:57:17.130Z,2.49
2018-12-29T16:59:48.892Z,2.34
2018-12-29T17:02:23.075Z,2.36
2018-12-29T17:04:54.952Z,2.30
2018-12-29T17:07:26.869Z,2.29
2018-12-29T17:09:58.430Z,2.22
2018-12-29T17:12:30.178Z,2.18
2018-12-29T17:15:01.585Z,2.14
2018-12-29T17:17:33.351Z,2.26
2018-12-29T17:20:04.401Z,2.28
2018-12-29T17:22:36.168Z,2.12
2018-12-29T17:25:14.095Z,2.25
2018-12-29T17:27:49.352Z,2.17
2018-12-29T17:30:21.687Z,2.25
2018-12-29T17:32:53.433Z,2.29
2018-12-29T17:35:24.904Z,2.22
2018-12-29T17:37:56.338Z,2.19
2018-12-29T17:40:27.918Z,2.26
2018-12-29T17:42:59.636Z,2.18
2018-12-29T17:45:31.680Z,2.18
2018-12-29T17:48:03.388Z,2.22
2018-12-29T17:50:35.158Z,2.10
2018-12-29T17:53:29.021Z,2.22
2018-12-29T17:56:01.031Z,2.14
2018-12-29T17:58:32.284Z,2.12
2018-12-29T18:01:04.103Z,2.03
2018-12-29T18:03:49.512Z,2.14
2018-12-29T18:06:22.553Z,2.09
2018-12-29T18:08:54.136Z,2.12
2018-12-29T18:11:33.153Z,2.13
2018-12-29T18:14:04.245Z,2.20
2018-12-29T18:16:36.216Z,2.20
2018-12-29T18:19:07.756Z,2.12
2018-12-29T18:21:39.259Z,2.11
2018-12-29T18:24:10.491Z,2.16
2018-12-29T18:26:41.672Z,2.20
2018-12-29T18:29:16.962Z,2.10
2018-12-29T18:31:48.655Z,2.09
2018-12-29T18:34:20.421Z,2.13
2018-12-29T18:36:52.131Z,2.06
2018-12-29T18:39:23.698Z,1.97
2018-12-29T18:41:55.074Z,2.04
2018-12-29T18:44:26.546Z,2.13
2018-12-29T18:46:58.671Z,2.14
2018-12-29T18:49:38.518Z,2.05
2018-12-29T18:52:07.328Z,2.05
2018-12-29T18:54:42.058Z,2.11
2018-12-29T18:57:14.157Z,2.06
2018-12-29T18:59:45.628Z,1.98
2018-12-29T19:02:17.789Z,2.02
2018-12-29T19:04:49.257Z,1.98
2018-12-29T19:07:21.192Z,1.94
2018-12-29T19:09:52.815Z,1.91
2018-12-29T19:12:24.282Z,1.79
2018-12-29T19:14:55.181Z,1.92
2018-12-29T19:17:27.128Z,1.95
2018-12-29T19:19:58.929Z,1.85
2018-12-29T19:22:29.807Z,1.91
2018-12-29T19:25:01.209Z,1.96
2018-12-29T19:27:32.757Z,1.75
2018-12-29T19:30:05.375Z,1.85
2018-12-29T19:32:36.939Z,1.92
2018-12-29T19:35:07.940Z,1.87
2018-12-29T19:37:39.687Z,1.81
2018-12-29T19:40:11.239Z,1.85
2018-12-29T19:42:42.868Z,1.91
2018-12-29T19:45:14.597Z,1.93
2018-12-29T19:47:46.477Z,1.83
2018-12-29T19:50:18.456Z,1.74
2018-12-29T19:52:50.164Z,1.78
2018-12-29T19:55:21.405Z,1.88
2018-12-29T19:57:52.554Z,2.01
2018-12-29T20:00:34.285Z,1.90
2018-12-29T20:03:06.929Z,1.83
2018-12-29T20:05:40.512Z,1.76
2018-12-29T20:08:13.388Z,1.76
2018-12-29T20:10:46.878Z,1.93
2018-12-29T20:13:29.664Z,2.01
2018-12-29T20:16:10.129Z,1.97
2018-12-29T20:18:44.093Z,1.96
2018-12-29T20:21:18.009Z,2.01
2018-12-29T20:23:52.652Z,1.95
2018-12-29T20:26:25.129Z,1.98
2018-12-29T20:28:57.153Z,1.98
2018-12-29T20:31:28.763Z,2.04
2018-12-29T20:34:01.801Z,2.05
2018-12-29T20:36:40.470Z,2.04
2018-12-29T20:39:17.154Z,1.94
2018-12-29T20:41:51.366Z,2.02
2018-12-29T20:44:24.830Z,2.04
2018-12-29T20:46:57.056Z,1.97
2018-12-29T20:49:31.090Z,1.89
2018-12-29T20:52:02.521Z,1.78
2018-12-29T20:54:35.167Z,1.86
2018-12-29T20:57:08.195Z,1.77
2018-12-29T20:59:39.627Z,1.79
2018-12-29T21:02:17.215Z,1.78
2018-12-29T21:04:49.306Z,1.80
2018-12-29T21:07:23.196Z,1.81
2018-12-29T21:09:55.343Z,1.80
2018-12-29T21:12:26.768Z,1.86
2018-12-29T21:14:58.956Z,1.81
2018-12-29T21:17:36.583Z,1.81
2018-12-29T21:20:20.326Z,1.88
2018-12-29T21:22:58.216Z,2.02
2018-12-29T21:25:31.169Z,2.06
2018-12-29T21:28:06.417Z,2.19
2018-12-29T21:30:44.360Z,2.14
2018-12-29T21:33:15.182Z,2.23
2018-12-29T21:35:46.663Z,2.24
2018-12-29T21:38:17.911Z,2.19
2018-12-29T21:40:49.383Z,2.21
2018-12-29T21:43:21.722Z,2.22
2018-12-29T21:45:52.417Z,2.18
2018-12-29T21:48:24.421Z,2.16
2018-12-29T21:50:56.857Z,2.20
2018-12-29T21:53:28.869Z,2.28
2018-12-29T21:56:01.763Z,2.28
2018-12-29T21:58:33.506Z,2.20
2018-12-29T22:01:04.812Z,2.19
2018-12-29T22:03:40.424Z,2.18
2018-12-29T22:06:12.005Z,2.27
2018-12-29T22:08:43.603Z,2.21
2018-12-29T22:11:17.133Z,2.20
2018-12-29T22:13:48.839Z,2.35
2018-12-29T22:16:20.968Z,2.39
2018-12-29T22:18:53.347Z,2.25
2018-12-29T22:21:27.371Z,2.32
2018-12-29T22:24:04.912Z,2.44
2018-12-29T22:26:37.708Z,2.50
2018-12-29T22:29:15.105Z,2.39
2018-12-29T22:31:49.162Z,2.44
2018-12-29T22:34:22.728Z,2.42
2018-12-29T22:36:56.463Z,2.36
2018-12-29T22:39:29.191Z,2.37
2018-12-29T22:42:09.804Z,2.33
2018-12-29T22:44:44.083Z,2.40
2018-12-29T22:47:17.837Z,2.29
2018-12-29T22:49:55.657Z,2.33
2018-12-29T22:52:34.191Z,2.35
2018-12-29T22:55:05.934Z,2.23
2018-12-29T22:57:37.450Z,2.34
2018-12-29T23:00:13.997Z,2.37
2018-12-29T23:02:45.218Z,2.47
2018-12-29T23:05:16.593Z,2.50
2018-12-29T23:07:49.213Z,2.53
2018-12-29T23:10:27.409Z,2.51
2018-12-29T23:13:02.760Z,2.52
2018-12-29T23:15:36.195Z,2.52
2018-12-29T23:18:07.347Z,2.57
2018-12-29T23:20:48.807Z,2.50
2018-12-29T23:23:16.078Z,2.49
2018-12-29T23:25:51.687Z,2.57
2018-12-29T23:28:32.542Z,2.52
2018-12-29T23:31:03.876Z,2.57
2018-12-29T23:33:35.669Z,2.58
2018-12-29T23:36:07.296Z,2.64
2018-12-29T23:38:38.831Z,2.59
2018-12-29T23:41:16.097Z,2.52
2018-12-29T23:43:47.947Z,2.59
2018-12-29T23:46:20.329Z,2.64
2018-12-29T23:48:51.760Z,2.58
2018-12-29T23:51:26.806Z,2.60
2018-12-29T23:53:58.775Z,2.58
2018-12-29T23:56:32.693Z,2.60
2018-12-29T23:59:04.518Z,2.63
